Time;durP1;ratioP1;P1;durP2;ratioP2;P2;SDS_P1;SDS_P2;PMS_P1;PMS_P2;Temp;Humidity;BMP_temperature;BMP_pressure;BME280_temperature;BME280_humidity;BME280_pressure;Samples;Min_cycle;Max_cycle;Signal;HPM_P1;HPM_P2
2022/07/15 00:01:19;;;;;;;;;;;;;;;22.93;43.21;101273.81;4923105;29;4076;-66
2022/07/15 00:03:46;;;;;;;;;;;;;;;22.91;43.33;101265.09;4914028;29;4196;-66
2022/07/15 00:06:12;;;;;;;;;;;;;;;22.90;43.30;101273.00;4919100;29;4187;-66
2022/07/15 00:08:39;;;;;;;;;;;;;;;22.90;43.27;101272.28;4920599;29;4404;-67
2022/07/15 00:11:05;;;;;;;;;;;;;;;22.91;43.63;101271.63;4917243;29;4244;-67
2022/07/15 00:13:31;;;;;;;;;;;;;;;22.91;43.56;101262.97;4917469;29;4264;-66
2022/07/15 00:15:58;;;;;;;;;;;;;;;22.91;43.28;101277.41;4911582;29;5595;-67
2022/07/15 00:18:24;;;;;;;;;;;;;;;22.90;43.45;101267.22;4905678;29;4280;-67
2022/07/15 00:20:51;;;;;;;;;;;;;;;22.89;43.49;101274.41;4921493;29;4138;-66
2022/07/15 00:23:17;;;;;;;;;;;;;;;22.89;43.46;101279.47;4918735;29;4030;-67
2022/07/15 00:25:44;;;;;;;;;;;;;;;22.86;43.71;101278.63;4919814;29;4182;-67
2022/07/15 00:28:10;;;;;;;;;;;;;;;22.88;43.70;101275.06;4915430;29;4305;-66
2022/07/15 00:30:38;;;;;;;;;;;;;;;22.87;43.46;101274.31;4920503;29;4214;-67
2022/07/15 00:33:04;;;;;;;;;;;;;;;22.85;43.74;101277.13;4918008;29;4194;-67
2022/07/15 00:35:31;;;;;;;;;;;;;;;22.86;43.61;101278.63;4920917;29;4151;-70
2022/07/15 00:37:57;;;;;;;;;;;;;;;22.86;43.79;101283.63;4917535;29;4210;-69
2022/07/15 00:40:23;;;;;;;;;;;;;;;22.87;43.71;101280.09;4919216;29;4341;-69
2022/07/15 00:42:50;;;;;;;;;;;;;;;22.86;43.57;101284.41;4916164;29;4222;-68
2022/07/15 00:45:17;;;;;;;;;;;;;;;22.84;43.59;101281.44;4915988;29;5170;-66
2022/07/15 00:47:44;;;;;;;;;;;;;;;22.85;43.66;101282.91;4902219;29;4220;-68
2022/07/15 00:50:11;;;;;;;;;;;;;;;22.84;43.72;101277.78;4914803;29;4090;-69
2022/07/15 00:52:38;;;;;;;;;;;;;;;22.83;43.53;101284.97;4918309;29;4176;-66
2022/07/15 00:55:06;;;;;;;;;;;;;;;22.82;43.78;101281.34;4919460;29;4218;-69
2022/07/15 00:57:32;;;;;;;;;;;;;;;22.83;43.88;101284.97;4916486;29;5343;-69
2022/07/15 00:59:59;;;;;;;;;;;;;;;22.82;43.67;101278.44;4903390;29;4395;-66
2022/07/15 01:02:25;;;;;;;;;;;;;;;22.81;43.79;101282.72;4898423;29;5318;-68
2022/07/15 01:04:52;;;;;;;;;;;;;;;22.80;43.77;101284.13;4907664;29;4217;-66
2022/07/15 01:07:18;;;;;;;;;;;;;;;22.80;43.78;101287.03;4901526;29;4228;-69
2022/07/15 01:09:47;;;;;;;;;;;;;;;22.79;43.74;101285.53;4901525;29;4052;-66
2022/07/15 01:12:13;;;;;;;;;;;;;;;22.79;43.85;101285.53;4914291;29;4204;-66
2022/07/15 01:14:40;;;;;;;;;;;;;;;22.79;43.67;101297.06;4918527;29;4042;-66
2022/07/15 01:17:16;;;;;;;;;;;;;;;22.79;43.98;101297.06;4902401;29;4827;-67
2022/07/15 01:19:42;;;;;;;;;;;;;;;22.78;43.61;101296.31;4915446;29;5077;-66
2022/07/15 01:22:09;;;;;;;;;;;;;;;22.77;43.83;101294.84;4916078;29;4105;-66
2022/07/15 01:24:37;;;;;;;;;;;;;;;22.76;43.61;101292.63;4901600;29;4234;-67
2022/07/15 01:27:15;;;;;;;;;;;;;;;22.77;43.96;101294.84;4916102;29;4209;-67
2022/07/15 01:29:41;;;;;;;;;;;;;;;22.77;43.84;101294.13;4912462;29;5406;-66
2022/07/15 01:32:08;;;;;;;;;;;;;;;22.75;44.04;101299.78;4900632;29;5314;-66
2022/07/15 01:34:34;;;;;;;;;;;;;;;22.73;43.90;101296.81;4917613;29;6394;-67
2022/07/15 01:37:01;;;;;;;;;;;;;;;22.75;43.84;101288.25;4918200;29;5384;-67
2022/07/15 01:39:29;;;;;;;;;;;;;;;22.75;43.79;101291.13;4904786;29;4348;-66
2022/07/15 01:42:04;;;;;;;;;;;;;;;22.74;43.62;101292.53;4917367;29;4535;-67
2022/07/15 01:44:32;;;;;;;;;;;;;;;22.74;43.74;101296.16;4902506;29;4232;-67
2022/07/15 01:46:59;;;;;;;;;;;;;;;22.73;43.76;101288.91;4904099;29;4266;-67
2022/07/15 01:49:31;;;;;;;;;;;;;;;22.73;43.69;101293.94;4902809;29;4483;-67
2022/07/15 01:52:01;;;;;;;;;;;;;;;22.72;43.92;101287.41;4918080;29;4063;-67
2022/07/15 01:54:28;;;;;;;;;;;;;;;22.73;43.82;101285.28;4918191;29;4082;-67
2022/07/15 01:56:57;;;;;;;;;;;;;;;22.72;43.60;101287.41;4899555;29;5326;-66
2022/07/15 01:59:25;;;;;;;;;;;;;;;22.72;43.83;101286.66;4902182;29;4220;-67
2022/07/15 02:01:52;;;;;;;;;;;;;;;22.71;43.81;101285.19;4921098;29;4566;-66
2022/07/15 02:04:19;;;;;;;;;;;;;;;22.70;43.68;101289.44;4911830;29;4117;-67
2022/07/15 02:06:47;;;;;;;;;;;;;;;22.69;43.92;101282.22;4917535;29;4238;-67
2022/07/15 02:09:15;;;;;;;;;;;;;;;22.70;43.68;101292.34;4903413;29;4282;-66
2022/07/15 02:11:44;;;;;;;;;;;;;;;22.70;43.87;101296.00;4907111;29;4356;-67
2022/07/15 02:14:11;;;;;;;;;;;;;;;22.68;43.84;101284.34;4899620;29;4245;-67
2022/07/15 02:16:39;;;;;;;;;;;;;;;22.68;43.67;101292.28;4901975;29;4096;-67
2022/07/15 02:19:10;;;;;;;;;;;;;;;22.67;43.64;101288.63;4917455;29;4316;-67
2022/07/15 02:21:36;;;;;;;;;;;;;;;22.67;43.71;101290.78;4901320;29;4349;-67
2022/07/15 02:24:03;;;;;;;;;;;;;;;22.65;43.82;101294.31;4903642;29;4188;-68
2022/07/15 02:26:30;;;;;;;;;;;;;;;22.65;43.84;101287.78;4916255;29;4322;-67
2022/07/15 02:28:56;;;;;;;;;;;;;;;22.66;43.89;101292.19;4918968;29;4061;-67
2022/07/15 02:31:25;;;;;;;;;;;;;;;22.64;43.69;101298.59;4905495;29;4091;-67
2022/07/15 02:33:52;;;;;;;;;;;;;;;22.65;43.63;101302.22;4907317;29;4233;-67
2022/07/15 02:36:19;;;;;;;;;;;;;;;22.65;44.01;101293.56;4902385;29;4316;-67
2022/07/15 02:38:45;;;;;;;;;;;;;;;22.63;43.78;101296.38;4906757;29;5280;-67
2022/07/15 02:41:14;;;;;;;;;;;;;;;22.62;43.94;101294.88;4903021;29;4084;-67
2022/07/15 02:43:44;;;;;;;;;;;;;;;22.61;43.97;101299.91;4904319;29;4122;-67
2022/07/15 02:46:11;;;;;;;;;;;;;;;22.61;43.99;101302.81;4916815;29;4125;-67
2022/07/15 02:48:37;;;;;;;;;;;;;;;22.62;43.90;101300.66;4917722;29;4147;-67
2022/07/15 02:51:05;;;;;;;;;;;;;;;22.61;44.06;101305.69;4911546;29;4205;-65
2022/07/15 02:53:32;;;;;;;;;;;;;;;22.59;44.17;101297.69;4913597;29;4300;-65
2022/07/15 02:56:03;;;;;;;;;;;;;;;22.58;44.24;101307.72;4904034;29;4239;-65
2022/07/15 02:58:31;;;;;;;;;;;;;;;22.57;44.00;101305.50;4901588;29;4099;-66
2022/07/15 03:00:58;;;;;;;;;;;;;;;22.56;44.32;101304.78;4878018;29;5284;-66
2022/07/15 03:03:28;;;;;;;;;;;;;;;22.55;44.29;101309.03;4897545;29;4433;-66
2022/07/15 03:05:56;;;;;;;;;;;;;;;22.56;44.04;101310.53;4895594;29;4568;-67
2022/07/15 03:08:23;;;;;;;;;;;;;;;22.55;44.34;101317.69;4910714;29;4232;-67
2022/07/15 03:10:49;;;;;;;;;;;;;;;22.54;44.43;101319.09;4914413;29;4233;-67
2022/07/15 03:13:17;;;;;;;;;;;;;;;22.54;44.52;101319.09;4914303;29;4177;-67
2022/07/15 03:15:43;;;;;;;;;;;;;;;22.55;44.52;101323.47;4916925;29;4344;-67
2022/07/15 03:18:10;;;;;;;;;;;;;;;22.52;44.66;101313.25;4896187;29;4356;-67
2022/07/15 03:20:36;;;;;;;;;;;;;;;22.53;44.45;101329.16;4916830;29;4027;-67
2022/07/15 03:23:03;;;;;;;;;;;;;;;22.54;44.45;101330.66;4903112;29;5444;-66
2022/07/15 03:25:31;;;;;;;;;;;;;;;22.53;44.58;101328.41;4910177;29;4470;-66
2022/07/15 03:28:02;;;;;;;;;;;;;;;22.52;44.65;101327.69;4899255;29;5485;-69
2022/07/15 03:33:44;;;;;;;;;;;;;;;22.47;44.66;101337.56;4904154;29;5289;-65
2022/07/15 03:36:23;;;;;;;;;;;;;;;22.47;44.60;101337.56;4900184;29;4164;-66
2022/07/15 03:38:51;;;;;;;;;;;;;;;22.57;44.52;101340.88;4902368;29;4622;-66
2022/07/15 03:41:18;;;;;;;;;;;;;;;22.58;44.54;101345.25;4911303;29;5704;-65
2022/07/15 03:43:44;;;;;;;;;;;;;;;22.59;44.52;101354.66;4892269;29;5727;-66
2022/07/15 03:46:13;;;;;;;;;;;;;;;22.57;44.61;101338.00;4906676;29;4225;-66
2022/07/15 03:48:44;;;;;;;;;;;;;;;22.45;44.89;101351.13;4917331;29;4383;-65
2022/07/15 03:51:10;;;;;;;;;;;;;;;22.42;44.74;101347.41;4918641;29;6079;-66
2022/07/15 03:53:37;;;;;;;;;;;;;;;22.42;44.81;101343.78;4902681;29;4643;-66
2022/07/15 03:56:03;;;;;;;;;;;;;;;22.41;44.98;101350.97;4916722;29;4279;-66
2022/07/15 03:58:31;;;;;;;;;;;;;;;22.38;44.73;101347.97;4900630;29;4064;-66
2022/07/15 04:00:57;;;;;;;;;;;;;;;22.38;44.78;101347.25;4900426;29;4345;-66
2022/07/15 04:03:25;;;;;;;;;;;;;;;22.38;44.92;101350.88;4900658;29;4183;-65
2022/07/15 04:05:52;;;;;;;;;;;;;;;22.35;45.02;101357.91;4907532;29;5236;-66
2022/07/15 04:08:18;;;;;;;;;;;;;;;22.37;44.88;101351.50;4919216;29;5940;-66
2022/07/15 04:10:45;;;;;;;;;;;;;;;22.37;45.04;101354.38;4898518;29;4200;-64
2022/07/15 04:13:11;;;;;;;;;;;;;;;22.35;45.08;101354.28;4897121;29;4597;-66
2022/07/15 04:15:38;;;;;;;;;;;;;;;22.34;45.02;101355.69;4900786;29;4302;-66
2022/07/15 04:18:04;;;;;;;;;;;;;;;22.34;45.30;101364.34;4917964;29;4249;-66
2022/07/15 04:20:31;;;;;;;;;;;;;;;22.31;45.18;101359.88;4918579;29;4075;-66
2022/07/15 04:22:59;;;;;;;;;;;;;;;22.32;44.96;101364.25;4901978;29;4567;-66
2022/07/15 04:25:27;;;;;;;;;;;;;;;22.31;45.02;101360.63;4918724;29;4735;-66
2022/07/15 04:27:53;;;;;;;;;;;;;;;22.31;45.13;101359.88;4903957;29;4340;-66
2022/07/15 04:30:24;;;;;;;;;;;;;;;22.30;45.06;101359.13;4903408;29;4213;-66
2022/07/15 04:32:50;;;;;;;;;;;;;;;22.30;45.06;101358.41;4911569;29;5254;-65
2022/07/15 04:35:18;;;;;;;;;;;;;;;22.31;45.13;101359.88;4920478;29;4524;-66
2022/07/15 04:37:52;;;;;;;;;;;;;;;22.30;45.50;101358.41;4902344;29;5731;-66
2022/07/15 04:40:18;;;;;;;;;;;;;;;22.30;45.16;101364.91;4901063;29;4240;-66
2022/07/15 04:42:44;;;;;;;;;;;;;;;22.30;45.20;101364.16;4916371;29;4268;-66
2022/07/15 04:45:13;;;;;;;;;;;;;;;22.29;45.33;101360.53;4900620;29;5702;-67
2022/07/15 04:47:40;;;;;;;;;;;;;;;22.31;45.53;101359.88;4907161;29;5386;-62
2022/07/15 04:52:55;;;;;;;;;;;;;;;22.32;45.36;101361.38;4898107;29;5172;-61
2022/07/15 04:55:22;;;;;;;;;;;;;;;22.22;45.58;101372.44;4906508;29;5206;-62
2022/07/15 04:57:57;;;;;;;;;;;;;;;22.17;45.48;101374.34;4904432;29;5125;-60
2022/07/15 05:00:24;;;;;;;;;;;;;;;22.20;45.52;101369.44;4923190;29;4240;-61
2022/07/15 05:02:51;;;;;;;;;;;;;;;22.16;45.35;101375.75;4921246;29;4189;-62
2022/07/15 05:05:18;;;;;;;;;;;;;;;22.20;45.34;101372.34;4907170;29;4182;-62
2022/07/15 05:07:45;;;;;;;;;;;;;;;22.17;45.61;101368.59;4905282;29;4344;-62
2022/07/15 05:10:11;;;;;;;;;;;;;;;22.13;45.37;101377.81;4913120;29;5921;-62
2022/07/15 05:12:43;;;;;;;;;;;;;;;22.16;45.79;101373.59;4918765;29;5477;-60
2022/07/15 05:15:10;;;;;;;;;;;;;;;22.19;45.45;101377.34;4904087;29;4047;-61
2022/07/15 05:17:39;;;;;;;;;;;;;;;22.17;45.58;101380.88;4905051;29;4673;-62
2022/07/15 05:20:11;;;;;;;;;;;;;;;22.09;45.56;101386.25;4904416;29;4175;-65
2022/07/15 05:22:37;;;;;;;;;;;;;;;22.15;45.63;101389.44;4911350;29;4271;-64
2022/07/15 05:25:05;;;;;;;;;;;;;;;22.20;45.47;101392.53;4897167;29;4250;-64
2022/07/15 05:27:31;;;;;;;;;;;;;;;22.22;45.66;101383.97;4916209;29;4294;-64
2022/07/15 05:29:58;;;;;;;;;;;;;;;22.16;45.76;101390.91;4919060;29;4205;-64
2022/07/15 05:32:24;;;;;;;;;;;;;;;22.11;46.65;101389.25;4912175;29;4246;-70
2022/07/15 05:34:51;;;;;;;;;;;;;;;22.34;45.82;101398.97;4916541;29;4221;-70
2022/07/15 05:37:18;;;;;;;;;;;;;;;22.36;45.45;101394.03;4907876;29;4326;-64
2022/07/15 05:39:53;;;;;;;;;;;;;;;22.30;45.36;101395.91;4921057;29;4110;-74
2022/07/15 05:42:34;;;;;;;;;;;;;;;22.28;45.41;101398.69;4920220;29;4388;-72
2022/07/15 05:45:01;;;;;;;;;;;;;;;22.28;45.35;101395.81;4911653;29;5995;-73
2022/07/15 05:47:27;;;;;;;;;;;;;;;22.26;45.12;101393.56;4901495;29;6539;-72
2022/07/15 05:49:55;;;;;;;;;;;;;;;22.28;44.92;101407.34;4918196;29;4612;-73
2022/07/15 05:52:25;;;;;;;;;;;;;;;22.28;45.04;101404.47;4905191;29;4385;-75
2022/07/15 05:54:51;;;;;;;;;;;;;;;22.28;44.94;101402.31;4908030;29;4472;-71
2022/07/15 05:57:18;;;;;;;;;;;;;;;22.29;45.09;101400.19;4920788;29;4231;-72
2022/07/15 05:59:44;;;;;;;;;;;;;;;22.30;45.08;101404.56;4923177;29;4471;-71
2022/07/15 06:02:13;;;;;;;;;;;;;;;22.29;44.90;101408.84;4911686;29;4892;-71
2022/07/15 06:04:40;;;;;;;;;;;;;;;22.21;44.67;101419.97;4919253;29;4149;-73
2022/07/15 06:07:08;;;;;;;;;;;;;;;22.08;44.81;101415.75;4911687;29;4591;-76
2022/07/15 06:09:34;;;;;;;;;;;;;;;21.94;45.00;101427.34;4903742;29;4908;-74
2022/07/15 06:12:01;;;;;;;;;;;;;;;22.12;44.94;101416.69;4904685;29;4658;-75
2022/07/15 06:14:29;;;;;;;;;;;;;;;22.15;45.22;101423.28;4905621;29;5731;-65
2022/07/15 06:17:04;;;;;;;;;;;;;;;22.33;44.73;101429.22;4919650;29;4264;-74
2022/07/15 06:19:30;;;;;;;;;;;;;;;22.55;47.53;101433.16;4901562;29;4503;-70
2022/07/15 06:21:57;;;;;;;;;;;;;;;22.70;45.18;101434.56;4922570;29;5384;-70
2022/07/15 06:24:23;;;;;;;;;;;;;;;22.82;44.87;101431.47;4905497;29;4339;-71
2022/07/15 06:26:50;;;;;;;;;;;;;;;22.98;44.15;101431.47;4906302;29;5920;-74
2022/07/15 06:29:19;;;;;;;;;;;;;;;23.05;43.80;101433.25;4909785;29;4681;-68
2022/07/15 06:31:46;;;;;;;;;;;;;;;22.93;44.09;101439.22;4907172;29;4262;-69
2022/07/15 06:34:12;;;;;;;;;;;;;;;22.87;43.98;101424.47;4917912;29;4780;-68
2022/07/15 06:36:39;;;;;;;;;;;;;;;23.07;43.51;101438.38;4926823;29;4231;-67
2022/07/15 06:39:05;;;;;;;;;;;;;;;22.84;43.97;101436.59;4927507;29;4231;-69
2022/07/15 06:41:31;;;;;;;;;;;;;;;22.94;43.87;101434.91;4932764;29;4448;-62
2022/07/15 06:43:59;;;;;;;;;;;;;;;23.24;43.34;101440.56;4909681;29;4232;-59
2022/07/15 06:46:41;;;;;;;;;;;;;;;23.24;43.33;101443.47;4899849;29;4461;-61
2022/07/15 06:49:08;;;;;;;;;;;;;;;22.95;43.76;101442.19;4917977;29;4604;-60
2022/07/15 06:51:34;;;;;;;;;;;;;;;23.01;43.91;101438.84;4920381;29;4223;-66
2022/07/15 06:54:01;;;;;;;;;;;;;;;22.93;43.58;101444.97;4896847;29;4497;-61
2022/07/15 06:56:30;;;;;;;;;;;;;;;22.76;43.60;101448.53;4915716;29;5072;-60
2022/07/15 06:58:57;;;;;;;;;;;;;;;22.57;43.81;101450.56;4920876;29;5537;-62
2022/07/15 07:01:23;;;;;;;;;;;;;;;22.63;43.79;101447.22;4918702;29;4585;-58
2022/07/15 07:03:50;;;;;;;;;;;;;;;22.79;43.72;101447.22;4908127;29;4282;-62
2022/07/15 07:06:26;;;;;;;;;;;;;;;22.93;43.36;101444.97;4926616;29;4120;-61
2022/07/15 07:08:53;;;;;;;;;;;;;;;23.04;42.96;101449.09;4908410;29;4212;-60
2022/07/15 07:11:19;;;;;;;;;;;;;;;23.09;42.91;101456.56;4927273;29;5314;-61
2022/07/15 07:13:46;;;;;;;;;;;;;;;23.09;42.73;101468.09;4928487;29;6062;-61
2022/07/15 07:16:13;;;;;;;;;;;;;;;22.95;42.99;101458.75;4924759;29;4692;-60
2022/07/15 07:18:40;;;;;;;;;;;;;;;22.89;42.94;101449.84;4920949;29;4261;-61
2022/07/15 07:21:06;;;;;;;;;;;;;;;23.04;42.65;101457.00;4925020;29;5037;-62
2022/07/15 07:23:34;;;;;;;;;;;;;;;23.08;42.66;101455.03;4924846;29;4202;-61
2022/07/15 07:26:00;;;;;;;;;;;;;;;23.12;42.46;101457.38;4927520;29;4679;-63
2022/07/15 07:28:26;;;;;;;;;;;;;;;23.14;42.71;101457.47;4923894;29;4566;-63
2022/07/15 07:30:54;;;;;;;;;;;;;;;23.17;42.34;101456.91;4919817;29;4253;-61
2022/07/15 07:33:21;;;;;;;;;;;;;;;23.07;42.64;101453.56;4925096;29;4132;-56
2022/07/15 07:35:48;;;;;;;;;;;;;;;23.08;42.28;101454.31;4922170;29;4225;-60
2022/07/15 07:38:14;;;;;;;;;;;;;;;23.04;42.60;101462.78;4922131;29;5065;-63
2022/07/15 07:40:40;;;;;;;;;;;;;;;22.96;42.53;101455.22;4923128;29;5351;-65
2022/07/15 07:43:07;;;;;;;;;;;;;;;22.98;42.31;101446.66;4924288;29;5626;-65
2022/07/15 07:45:33;;;;;;;;;;;;;;;23.10;42.47;101457.28;4926124;29;4176;-68
2022/07/15 07:47:59;;;;;;;;;;;;;;;23.15;42.25;101444.50;4924866;29;5187;-66
2022/07/15 07:50:26;;;;;;;;;;;;;;;23.21;41.97;101451.31;4929287;29;4277;-67
2022/07/15 07:52:53;;;;;;;;;;;;;;;23.25;41.89;101450.75;4927979;29;4172;-65
2022/07/15 07:55:20;;;;;;;;;;;;;;;23.26;41.92;101452.22;4928327;29;4582;-66
2022/07/15 07:57:47;;;;;;;;;;;;;;;23.26;41.71;101458.00;4929684;29;5265;-64
2022/07/15 08:00:14;;;;;;;;;;;;;;;23.28;41.75;101452.31;4929597;29;4256;-63
2022/07/15 08:02:41;;;;;;;;;;;;;;;23.32;41.63;101454.63;4927812;29;4224;-62
2022/07/15 08:05:08;;;;;;;;;;;;;;;23.30;41.43;101451.66;4926439;29;4110;-64
2022/07/15 08:07:35;;;;;;;;;;;;;;;23.31;41.49;101459.66;4925913;29;4111;-63
2022/07/15 08:10:05;;;;;;;;;;;;;;;23.30;41.27;101461.06;4924395;29;4265;-59
2022/07/15 08:12:32;;;;;;;;;;;;;;;23.29;41.19;101456.69;4922688;29;4287;-62
2022/07/15 08:14:59;;;;;;;;;;;;;;;23.33;40.72;101456.13;4920310;29;4275;-63
2022/07/15 08:17:25;;;;;;;;;;;;;;;23.30;40.88;101463.97;4922457;29;4063;-63
2022/07/15 08:19:52;;;;;;;;;;;;;;;23.28;40.48;101466.75;4926804;29;5785;-63
2022/07/15 08:22:18;;;;;;;;;;;;;;;23.28;40.71;101463.88;4923714;29;4608;-64
2022/07/15 08:24:45;;;;;;;;;;;;;;;23.27;40.57;101467.41;4922713;29;5637;-61
2022/07/15 08:27:11;;;;;;;;;;;;;;;23.29;40.71;101459.56;4924590;29;4212;-61
2022/07/15 08:29:38;;;;;;;;;;;;;;;23.30;40.45;101463.22;4924003;29;4547;-63
2022/07/15 08:32:04;;;;;;;;;;;;;;;23.28;40.64;101460.97;4926597;29;5453;-63
2022/07/15 08:34:31;;;;;;;;;;;;;;;23.30;40.58;101458.19;4930733;29;4386;-63
2022/07/15 08:36:57;;;;;;;;;;;;;;;23.31;40.66;101471.22;4925835;29;4215;-63
2022/07/15 08:39:24;;;;;;;;;;;;;;;23.30;40.41;101458.19;4928863;29;4321;-67
2022/07/15 08:41:50;;;;;;;;;;;;;;;23.24;40.69;101472.34;4933590;29;4214;-66
2022/07/15 08:44:17;;;;;;;;;;;;;;;23.00;40.84;101475.66;4906267;29;4521;-69
2022/07/15 08:46:44;;;;;;;;;;;;;;;23.07;41.02;101470.91;4928060;29;4686;-66
2022/07/15 08:49:14;;;;;;;;;;;;;;;23.20;40.53;101466.41;4925429;29;4584;-65
2022/07/15 08:51:41;;;;;;;;;;;;;;;23.27;40.39;101459.47;4930469;29;4290;-67
2022/07/15 08:54:08;;;;;;;;;;;;;;;23.28;40.33;101458.09;4927617;29;4600;-67
2022/07/15 08:56:35;;;;;;;;;;;;;;;23.02;41.21;101459.81;4906363;29;4673;-66
2022/07/15 08:59:01;;;;;;;;;;;;;;;22.95;41.05;101458.75;4921604;29;4580;-68
2022/07/15 09:01:28;;;;;;;;;;;;;;;22.96;41.12;101452.34;4921785;29;5848;-66
2022/07/15 09:03:54;;;;;;;;;;;;;;;23.20;40.75;101460.63;4923385;29;4665;-65
2022/07/15 09:06:31;;;;;;;;;;;;;;;23.25;40.58;101473.88;4924729;29;4564;-67
2022/07/15 09:08:57;;;;;;;;;;;;;;;23.21;40.53;101467.91;4923979;29;5260;-66
2022/07/15 09:11:27;;;;;;;;;;;;;;;23.06;40.71;101462.88;4926217;29;4712;-68
2022/07/15 09:13:53;;;;;;;;;;;;;;;22.98;41.06;101466.88;4918431;29;4597;-71
2022/07/15 09:16:21;;;;;;;;;;;;;;;23.13;40.82;101467.53;4924736;29;5356;-74
2022/07/15 09:18:48;;;;;;;;;;;;;;;23.20;40.79;101472.16;4923566;29;4298;-74
2022/07/15 09:21:22;;;;;;;;;;;;;;;23.24;40.44;101474.50;4925047;29;4175;-64
2022/07/15 09:23:48;;;;;;;;;;;;;;;23.26;40.12;101463.78;4924275;29;5242;-63
2022/07/15 09:26:25;;;;;;;;;;;;;;;23.26;40.09;101468.81;4924997;29;4679;-63
2022/07/15 09:28:51;;;;;;;;;;;;;;;23.24;39.80;101469.47;4924100;29;5404;-61
2022/07/15 09:34:19;;;;;;;;;;;;;;;23.25;39.62;101473.09;4923652;29;5438;-65
2022/07/15 09:36:50;;;;;;;;;;;;;;;23.28;39.60;101478.31;4920518;29;4726;-64
2022/07/15 09:39:17;;;;;;;;;;;;;;;23.31;39.57;101482.03;4922227;29;4494;-65
2022/07/15 09:41:44;;;;;;;;;;;;;;;23.31;39.90;101482.78;4923890;29;5936;-63
2022/07/15 09:44:13;;;;;;;;;;;;;;;23.12;40.10;101487.00;4921569;29;5107;-62
2022/07/15 09:46:43;;;;;;;;;;;;;;;23.12;39.95;101489.16;4924228;29;4319;-66
2022/07/15 09:49:10;;;;;;;;;;;;;;;23.22;39.72;101483.81;4922353;29;5048;-63
2022/07/15 09:51:47;;;;;;;;;;;;;;;23.19;39.67;101485.88;4898807;29;5678;-61
2022/07/15 09:54:13;;;;;;;;;;;;;;;22.79;40.46;101487.63;4919878;29;5192;-64
2022/07/15 09:56:40;;;;;;;;;;;;;;;22.69;40.79;101485.03;4921116;29;4195;-64
2022/07/15 09:59:07;;;;;;;;;;;;;;;22.73;40.90;101484.47;4919937;29;4489;-67
2022/07/15 10:01:33;;;;;;;;;;;;;;;23.04;40.34;101483.00;4915874;29;5044;-73
2022/07/15 10:04:00;;;;;;;;;;;;;;;23.21;40.02;101491.75;4922126;29;4204;-72
2022/07/15 10:06:27;;;;;;;;;;;;;;;23.27;39.69;101487.63;4922359;29;4171;-73
2022/07/15 10:08:53;;;;;;;;;;;;;;;23.31;39.59;101482.78;4920557;29;5069;-77
2022/07/15 10:11:20;;;;;;;;;;;;;;;23.36;40.28;101490.22;4919867;29;4883;-74
2022/07/15 10:14:04;;;;;;;;;;;;;;;23.32;40.00;101486.41;4920792;29;4462;-70
2022/07/15 10:16:49;;;;;;;;;;;;;;;23.22;40.57;101486.72;4922820;29;4590;-69
2022/07/15 10:19:34;;;;;;;;;;;;;;;23.07;40.84;101487.50;4906394;29;4640;-70
2022/07/15 10:22:03;;;;;;;;;;;;;;;23.01;41.46;101487.94;4923014;29;4569;-66
2022/07/15 10:24:48;;;;;;;;;;;;;;;23.08;41.29;101494.75;4921872;29;4214;-66
2022/07/15 10:27:35;;;;;;;;;;;;;;;23.04;41.54;101488.78;4923301;29;4237;-67
2022/07/15 10:30:07;;;;;;;;;;;;;;;23.09;41.71;101490.44;4922425;29;4184;-65
2022/07/15 10:32:53;;;;;;;;;;;;;;;23.08;41.91;101491.88;4922217;29;4240;-67
2022/07/15 10:35:39;;;;;;;;;;;;;;;23.00;42.30;101487.22;4919410;29;4434;-64
2022/07/15 10:38:21;;;;;;;;;;;;;;;23.18;41.84;101481.50;4918869;29;4424;-64
2022/07/15 10:41:06;;;;;;;;;;;;;;;23.24;42.12;101483.91;4919731;29;4271;-66
2022/07/15 10:43:42;;;;;;;;;;;;;;;23.21;41.64;101488.13;4919514;29;4359;-64
2022/07/15 10:46:17;;;;;;;;;;;;;;;23.22;41.50;101492.50;4921455;29;5276;-62
2022/07/15 10:48:47;;;;;;;;;;;;;;;23.28;41.48;101484.09;4921772;29;5248;-63
2022/07/15 10:51:33;;;;;;;;;;;;;;;23.23;42.22;101482.44;4919116;29;6713;-71
2022/07/15 10:53:59;;;;;;;;;;;;;;;23.19;41.93;101483.00;4922267;29;4182;-68
2022/07/15 10:56:28;;;;;;;;;;;;;;;23.24;41.99;101477.41;4921657;29;4433;-69
2022/07/15 10:59:10;;;;;;;;;;;;;;;23.33;41.86;101482.13;4921610;29;4701;-68
2022/07/15 11:01:37;;;;;;;;;;;;;;;23.39;41.79;101485.31;4921249;29;4239;-66
2022/07/15 11:04:09;;;;;;;;;;;;;;;23.29;41.72;101485.59;4920652;29;4262;-65
2022/07/15 11:06:55;;;;;;;;;;;;;;;23.33;41.66;101479.97;4920277;29;4536;-71
2022/07/15 11:09:41;;;;;;;;;;;;;;;23.36;41.76;101486.59;4920320;29;4231;-67
2022/07/15 11:12:08;;;;;;;;;;;;;;;23.29;42.18;101482.69;4919548;29;4655;-63
2022/07/15 11:14:50;;;;;;;;;;;;;;;23.41;41.98;101480.34;4920134;29;5451;-62
2022/07/15 11:17:17;;;;;;;;;;;;;;;23.48;42.16;101477.72;4920501;29;4304;-62
2022/07/15 11:19:47;;;;;;;;;;;;;;;23.48;41.98;101472.69;4921399;29;4486;-64
2022/07/15 11:22:13;;;;;;;;;;;;;;;23.52;42.02;101466.31;4918745;29;4695;-67
2022/07/15 11:24:40;;;;;;;;;;;;;;;23.40;41.96;101475.97;4902488;29;4200;-63
2022/07/15 11:27:06;;;;;;;;;;;;;;;23.47;42.43;101470.44;4918212;29;4469;-63
2022/07/15 11:29:46;;;;;;;;;;;;;;;23.48;41.74;101483.50;4919843;29;5709;-64
2022/07/15 11:32:12;;;;;;;;;;;;;;;23.56;41.73;101487.47;4918371;29;5272;-62
2022/07/15 11:34:39;;;;;;;;;;;;;;;23.41;42.81;101491.19;4915206;29;4509;-66
2022/07/15 11:37:06;;;;;;;;;;;;;;;23.26;42.83;101486.91;4921424;29;4844;-69
2022/07/15 11:39:32;;;;;;;;;;;;;;;23.30;43.08;101492.13;4920150;29;4197;-66
2022/07/15 11:44:47;;;;;;;;;;;;;;;23.46;43.12;101480.53;4920060;29;4410;-72
2022/07/15 11:47:14;;;;;;;;;;;;;;;23.48;42.85;101484.25;4915740;29;4478;-67
2022/07/15 11:49:41;;;;;;;;;;;;;;;23.55;42.96;101488.16;4918498;29;4627;-66
2022/07/15 11:52:08;;;;;;;;;;;;;;;23.54;42.65;101486.66;4915740;29;4112;-63
2022/07/15 11:54:35;;;;;;;;;;;;;;;23.55;42.76;101488.91;4918071;29;4216;-68
2022/07/15 11:57:08;;;;;;;;;;;;;;;23.52;42.56;101489.44;4919206;29;4115;-65
2022/07/15 11:59:34;;;;;;;;;;;;;;;23.47;42.22;101493.56;4920127;29;4066;-62
2022/07/15 12:02:05;;;;;;;;;;;;;;;23.44;42.51;101478.28;4919575;29;4201;-62
2022/07/15 12:04:31;;;;;;;;;;;;;;;23.46;42.32;101478.38;4919188;29;5513;-63
2022/07/15 12:06:58;;;;;;;;;;;;;;;23.50;42.57;101478.56;4918620;29;5337;-65
2022/07/15 12:09:24;;;;;;;;;;;;;;;23.47;42.29;101470.44;4920630;29;4259;-71
2022/07/15 12:11:51;;;;;;;;;;;;;;;23.46;42.54;101474.75;4917831;29;4730;-65
2022/07/15 12:14:21;;;;;;;;;;;;;;;23.47;42.54;101473.34;4913283;29;5368;-64
2022/07/15 12:16:48;;;;;;;;;;;;;;;23.50;42.60;101483.56;4918633;29;4651;-64
2022/07/15 12:19:19;;;;;;;;;;;;;;;23.47;42.47;101482.00;4913403;29;4270;-66
2022/07/15 12:21:49;;;;;;;;;;;;;;;23.44;42.82;101486.22;4906126;29;4281;-61
2022/07/15 12:24:18;;;;;;;;;;;;;;;23.44;42.56;101489.13;4917962;29;4098;-62
2022/07/15 12:26:52;;;;;;;;;;;;;;;23.35;42.81;101488.00;4920387;29;5249;-62
2022/07/15 12:29:19;;;;;;;;;;;;;;;23.36;42.89;101493.13;4919302;29;4577;-64
2022/07/15 12:32:05;;;;;;;;;;;;;;;23.30;43.17;101480.56;4912938;29;4082;-65
2022/07/15 12:34:46;;;;;;;;;;;;;;;23.25;43.24;101490.44;4916043;29;4649;-63
2022/07/15 12:37:13;;;;;;;;;;;;;;;23.15;43.46;101493.63;4914594;29;4254;-63
2022/07/15 12:40:03;;;;;;;;;;;;;;;23.15;43.36;101482.81;4920080;29;4267;-63
2022/07/15 12:42:37;;;;;;;;;;;;;;;23.06;43.72;101483.84;4909475;29;4057;-63
2022/07/15 12:45:20;;;;;;;;;;;;;;;23.12;43.31;101483.38;4916396;29;4797;-63
2022/07/15 12:47:56;;;;;;;;;;;;;;;23.11;43.45;101488.44;4917596;29;4488;-63
2022/07/15 12:50:22;;;;;;;;;;;;;;;23.12;43.73;101480.50;4921100;29;4041;-63
2022/07/15 12:52:49;;;;;;;;;;;;;;;23.13;43.38;101479.09;4916803;29;4261;-64
2022/07/15 12:55:16;;;;;;;;;;;;;;;23.13;43.48;101485.59;4904544;29;4047;-64
2022/07/15 12:57:42;;;;;;;;;;;;;;;23.12;43.47;101489.16;4917397;29;4377;-63
2022/07/15 13:00:10;;;;;;;;;;;;;;;23.12;43.44;101484.13;4915676;29;4478;-62
2022/07/15 13:02:56;;;;;;;;;;;;;;;23.12;43.55;101483.38;4917461;29;4123;-62
2022/07/15 13:05:23;;;;;;;;;;;;;;;23.13;43.74;101482.72;4920351;29;4059;-62
2022/07/15 13:07:49;;;;;;;;;;;;;;;23.13;43.57;101493.53;4917437;29;4953;-62